Time;durP1;ratioP1;P1;durP2;ratioP2;P2;SDS_P1;SDS_P2;PMS_P1;PMS_P2;Temp;Humidity;BMP_temperature;BMP_pressure;BME280_temperature;BME280_humidity;BME280_pressure;Samples;Min_cycle;Max_cycle;Signal;HPM_P1;HPM_P2
2023/11/22 00:00:34;;;;;;;8.10;4.30;;;3.00;99.90;;;;;;6242595;23;20473;-58
2023/11/22 00:03:01;;;;;;;7.40;4.00;;;3.00;99.90;;;;;;6242791;23;20400;-56
2023/11/22 00:05:28;;;;;;;7.27;3.93;;;3.00;99.90;;;;;;6242748;23;20482;-61
2023/11/22 00:07:55;;;;;;;7.40;4.13;;;3.00;99.90;;;;;;6242887;23;20410;-59
2023/11/22 00:10:23;;;;;;;5.20;3.20;;;3.00;99.90;;;;;;6242243;23;20407;-60
2023/11/22 00:12:50;;;;;;;8.20;4.50;;;3.00;99.90;;;;;;6242224;23;20412;-61
2023/11/22 00:15:18;;;;;;;7.90;4.60;;;3.00;99.90;;;;;;6242171;23;20435;-61
2023/11/22 00:17:46;;;;;;;7.10;3.13;;;3.00;99.90;;;;;;6242697;23;20458;-59
2023/11/22 00:20:13;;;;;;;7.77;3.73;;;3.00;99.90;;;;;;6241397;23;20411;-57
2023/11/22 00:22:40;;;;;;;6.10;4.20;;;3.00;99.90;;;;;;6242100;23;20396;-61
2023/11/22 00:25:08;;;;;;;8.63;4.23;;;3.00;99.90;;;;;;6242432;23;20435;-56
2023/11/22 00:27:36;;;;;;;10.03;4.30;;;3.10;99.90;;;;;;6241577;23;20408;-60
2023/11/22 00:30:06;;;;;;;8.80;4.13;;;3.10;99.90;;;;;;6242546;23;20424;-60
2023/11/22 00:32:33;;;;;;;11.83;3.27;;;3.10;99.90;;;;;;6241874;23;20423;-60
2023/11/22 00:35:01;;;;;;;10.07;4.10;;;3.10;99.90;;;;;;6242174;23;20430;-60
2023/11/22 00:37:29;;;;;;;13.60;4.00;;;3.10;99.90;;;;;;6242578;23;20436;-57
2023/11/22 00:40:00;;;;;;;4.37;2.80;;;3.10;99.90;;;;;;6242825;23;20692;-55
2023/11/22 00:42:27;;;;;;;7.53;4.10;;;3.00;99.90;;;;;;6242266;23;20439;-60
2023/11/22 00:44:54;;;;;;;3.63;3.30;;;3.10;99.90;;;;;;6242137;23;20400;-62
2023/11/22 00:47:22;;;;;;;8.33;3.40;;;3.10;99.90;;;;;;6242348;23;20506;-60
2023/11/22 00:49:49;;;;;;;8.00;4.70;;;3.00;99.90;;;;;;6242217;23;20483;-60
2023/11/22 00:52:17;;;;;;;9.87;3.97;;;3.00;99.90;;;;;;6242716;23;20415;-58
2023/11/22 00:54:44;;;;;;;5.53;4.47;;;3.00;99.90;;;;;;6242487;23;20443;-60
2023/11/22 00:57:11;;;;;;;7.70;4.23;;;3.00;99.90;;;;;;6242128;23;20396;-60
2023/11/22 00:59:38;;;;;;;7.40;3.97;;;3.00;99.90;;;;;;6242086;23;20389;-61
2023/11/22 01:02:05;;;;;;;10.17;5.10;;;3.00;99.90;;;;;;6242825;23;20392;-59
2023/11/22 01:04:35;;;;;;;5.53;3.10;;;3.00;99.90;;;;;;6242905;23;20408;-62
2023/11/22 01:07:02;;;;;;;5.53;4.13;;;3.10;99.90;;;;;;6242631;23;20428;-61
2023/11/22 01:09:32;;;;;;;5.60;3.23;;;3.10;99.90;;;;;;6243457;23;20411;-60
2023/11/22 01:11:59;;;;;;;9.37;4.30;;;3.00;99.90;;;;;;6242946;23;20404;-64
2023/11/22 01:14:29;;;;;;;11.93;4.53;;;3.00;99.90;;;;;;6242433;23;20494;-58
2023/11/22 01:16:56;;;;;;;4.33;3.07;;;3.00;99.90;;;;;;6242224;23;20419;-62
2023/11/22 01:19:23;;;;;;;6.60;4.10;;;2.90;99.90;;;;;;6242143;23;20432;-58
2023/11/22 01:21:50;;;;;;;9.77;3.50;;;3.00;99.90;;;;;;6242326;23;20400;-61
2023/11/22 01:24:17;;;;;;;7.77;4.37;;;2.90;99.90;;;;;;6242245;23;20388;-60
2023/11/22 01:26:45;;;;;;;8.97;4.07;;;2.90;99.90;;;;;;6241947;23;20407;-59
2023/11/22 01:29:12;;;;;;;8.27;3.93;;;2.80;99.90;;;;;;6241631;23;20408;-61
2023/11/22 01:31:41;;;;;;;5.30;3.57;;;2.80;99.90;;;;;;6241727;23;20447;-63
2023/11/22 01:34:08;;;;;;;4.57;3.83;;;2.80;99.90;;;;;;6241623;23;20392;-61
2023/11/22 01:36:35;;;;;;;4.00;3.20;;;2.70;99.90;;;;;;6241050;23;20436;-62
2023/11/22 01:39:03;;;;;;;6.37;3.53;;;2.70;99.90;;;;;;6241645;23;20391;-62
2023/11/22 01:41:31;;;;;;;7.90;3.80;;;2.60;99.90;;;;;;6241836;23;20412;-59
2023/11/22 01:44:00;;;;;;;7.33;3.50;;;2.60;99.90;;;;;;6242011;23;20511;-60
2023/11/22 01:46:27;;;;;;;6.90;3.87;;;2.60;99.90;;;;;;6241446;23;20678;-61
2023/11/22 01:48:55;;;;;;;13.00;5.70;;;2.60;99.90;;;;;;6242957;23;20396;-61
2023/11/22 01:51:23;;;;;;;4.30;3.40;;;2.60;99.90;;;;;;6243216;23;20399;-58
2023/11/22 01:53:54;;;;;;;6.47;4.90;;;2.50;99.90;;;;;;6243530;23;20384;-59
2023/11/22 01:56:21;;;;;;;6.83;3.80;;;2.50;99.90;;;;;;6243472;23;20455;-54
2023/11/22 01:58:53;;;;;;;6.97;3.63;;;2.40;99.90;;;;;;6243453;23;20419;-57
2023/11/22 02:01:21;;;;;;;9.73;4.50;;;2.40;99.90;;;;;;6243145;23;20376;-59
2023/11/22 02:03:48;;;;;;;6.20;3.63;;;2.40;99.90;;;;;;6242963;23;20443;-62
2023/11/22 02:06:17;;;;;;;11.27;3.63;;;2.40;99.90;;;;;;6242050;23;20411;-59
2023/11/22 02:08:44;;;;;;;6.90;3.80;;;2.30;99.90;;;;;;6241642;23;20499;-61
2023/11/22 02:11:11;;;;;;;7.30;3.73;;;2.30;99.90;;;;;;6241226;23;20391;-61
2023/11/22 02:13:37;;;;;;;5.93;3.03;;;2.20;99.90;;;;;;6241052;23;20408;-60
2023/11/22 02:16:05;;;;;;;6.93;4.10;;;2.20;99.90;;;;;;6241189;23;20424;-60
2023/11/22 02:18:33;;;;;;;4.43;2.87;;;2.20;99.90;;;;;;6241658;23;20403;-62
2023/11/22 02:21:01;;;;;;;4.17;3.13;;;2.20;99.90;;;;;;6241053;23;20442;-62
2023/11/22 02:23:30;;;;;;;3.00;2.40;;;2.20;99.90;;;;;;6241684;23;20391;-59
2023/11/22 02:25:58;;;;;;;4.43;3.03;;;2.20;99.90;;;;;;6241634;23;20415;-60
2023/11/22 02:28:25;;;;;;;5.00;3.00;;;2.20;99.90;;;;;;6241891;23;20787;-57
2023/11/22 02:30:52;;;;;;;7.00;3.83;;;2.20;99.90;;;;;;6241944;23;20408;-57
2023/11/22 02:33:19;;;;;;;3.70;2.30;;;2.10;99.90;;;;;;6240848;23;20415;-61
2023/11/22 02:35:46;;;;;;;3.90;2.60;;;2.10;99.90;;;;;;6241724;23;20423;-57
2023/11/22 02:38:13;;;;;;;5.93;3.27;;;2.10;99.90;;;;;;6240993;23;20404;-59
2023/11/22 02:40:42;;;;;;;3.63;2.30;;;2.10;99.90;;;;;;6241437;23;20384;-60
2023/11/22 02:43:09;;;;;;;4.50;3.07;;;2.10;99.90;;;;;;6241485;23;20422;-60
2023/11/22 02:45:36;;;;;;;5.97;3.37;;;2.10;99.90;;;;;;6241108;23;20411;-59
2023/11/22 02:48:03;;;;;;;6.67;3.00;;;2.10;99.90;;;;;;6241358;23;20411;-60
2023/11/22 02:50:31;;;;;;;8.27;3.63;;;2.10;99.90;;;;;;6241792;23;20480;-60
2023/11/22 02:53:01;;;;;;;7.97;4.10;;;2.00;99.90;;;;;;6243693;23;20388;-58
2023/11/22 02:55:28;;;;;;;5.53;3.10;;;2.00;99.90;;;;;;6243374;23;20467;-59
2023/11/22 02:57:57;;;;;;;3.37;2.57;;;2.00;99.90;;;;;;6243166;23;20470;-59
2023/11/22 03:00:24;;;;;;;3.03;2.73;;;2.00;99.90;;;;;;6243943;23;20404;-62
2023/11/22 03:02:53;;;;;;;5.33;3.07;;;1.90;99.90;;;;;;6242770;23;20434;-60
2023/11/22 03:05:21;;;;;;;4.30;3.20;;;1.90;99.90;;;;;;6242835;23;20376;-61
2023/11/22 03:07:50;;;;;;;7.30;3.60;;;1.90;99.90;;;;;;6242960;23;20415;-61
2023/11/22 03:10:18;;;;;;;3.10;2.50;;;1.90;99.90;;;;;;6242724;23;20432;-60
2023/11/22 03:12:45;;;;;;;10.80;3.93;;;1.90;99.90;;;;;;6243339;23;20403;-56
2023/11/22 03:15:14;;;;;;;3.77;2.90;;;1.90;99.90;;;;;;6243011;23;20442;-61
2023/11/22 03:17:41;;;;;;;6.17;3.20;;;1.90;99.90;;;;;;6243428;23;20376;-60
2023/11/22 03:20:11;;;;;;;4.43;2.90;;;1.90;99.90;;;;;;6243214;23;20392;-61
2023/11/22 03:22:38;;;;;;;7.60;4.00;;;1.90;99.90;;;;;;6243018;23;20712;-60
2023/11/22 03:25:06;;;;;;;5.37;3.17;;;1.80;99.90;;;;;;6243300;23;20423;-61
2023/11/22 03:27:33;;;;;;;5.70;3.40;;;1.80;99.90;;;;;;6243149;23;20435;-60
2023/11/22 03:30:01;;;;;;;5.13;3.00;;;1.80;99.90;;;;;;6243099;23;20404;-60
2023/11/22 03:32:36;;;;;;;4.53;3.20;;;1.70;99.90;;;;;;6242991;23;20400;-59
2023/11/22 03:35:04;;;;;;;6.47;3.47;;;1.70;99.90;;;;;;6243170;23;20427;-58
2023/11/22 03:37:31;;;;;;;9.73;3.87;;;1.60;99.90;;;;;;6242928;23;20400;-58
2023/11/22 03:40:01;;;;;;;5.10;3.33;;;1.60;99.90;;;;;;6223906;23;20448;-57
2023/11/22 03:42:28;;;;;;;7.27;3.50;;;1.60;99.90;;;;;;6213413;23;20388;-58
2023/11/22 03:44:55;;;;;;;13.47;4.03;;;1.60;99.90;;;;;;6213538;23;20401;-59
2023/11/22 03:47:22;;;;;;;5.50;3.80;;;1.60;99.90;;;;;;6213806;23;20392;-59
2023/11/22 03:49:50;;;;;;;6.13;3.63;;;1.60;99.90;;;;;;6213314;23;20416;-59
2023/11/22 03:52:17;;;;;;;8.90;3.47;;;1.60;99.90;;;;;;6213167;23;20421;-61
2023/11/22 03:54:44;;;;;;;7.63;3.90;;;1.60;99.90;;;;;;6213753;23;20384;-59
2023/11/22 03:57:11;;;;;;;5.30;3.13;;;1.60;99.90;;;;;;6212734;23;20428;-59
2023/11/22 03:59:38;;;;;;;6.13;3.80;;;1.60;99.90;;;;;;6212903;23;20404;-58
2023/11/22 04:02:05;;;;;;;4.60;3.13;;;1.70;99.90;;;;;;6212514;23;20405;-59
2023/11/22 04:04:32;;;;;;;9.47;4.37;;;1.60;99.90;;;;;;6212465;23;20423;-60
2023/11/22 04:07:00;;;;;;;6.10;3.60;;;1.60;99.90;;;;;;6213350;23;20384;-55
2023/11/22 04:09:27;;;;;;;6.00;3.23;;;1.60;99.90;;;;;;6212719;23;20411;-61
2023/11/22 04:11:54;;;;;;;6.80;4.20;;;1.60;99.90;;;;;;6213135;23;20401;-60
2023/11/22 04:14:21;;;;;;;9.80;3.97;;;1.60;99.90;;;;;;6213093;23;20423;-60
2023/11/22 04:16:48;;;;;;;6.20;3.57;;;1.60;99.90;;;;;;6212180;23;20440;-58
2023/11/22 04:19:15;;;;;;;7.03;4.57;;;1.50;99.90;;;;;;6212993;23;20401;-58
2023/11/22 04:21:42;;;;;;;6.33;3.00;;;1.50;99.90;;;;;;6212828;23;20408;-55
2023/11/22 04:24:12;;;;;;;8.33;3.47;;;1.50;99.90;;;;;;6212985;23;20393;-59
2023/11/22 04:26:38;;;;;;;6.93;3.43;;;1.40;99.90;;;;;;6212537;23;20400;-58
2023/11/22 04:29:06;;;;;;;6.50;3.87;;;1.40;99.90;;;;;;6212563;23;20428;-58
2023/11/22 04:31:32;;;;;;;7.50;4.50;;;1.40;99.90;;;;;;6212046;23;20389;-59
2023/11/22 04:34:00;;;;;;;8.77;4.40;;;1.40;99.90;;;;;;6212360;23;20461;-55
2023/11/22 04:36:27;;;;;;;8.20;3.77;;;1.40;99.90;;;;;;6212953;23;20518;-59
2023/11/22 04:38:54;;;;;;;9.73;5.53;;;1.40;99.90;;;;;;6212595;23;20389;-59
2023/11/22 04:41:22;;;;;;;7.80;3.37;;;1.40;99.90;;;;;;6212193;23;20460;-60
2023/11/22 04:43:49;;;;;;;7.80;4.80;;;1.40;99.90;;;;;;6212624;23;20487;-59
2023/11/22 04:46:16;;;;;;;10.80;5.03;;;1.40;99.90;;;;;;6212312;23;20420;-58
2023/11/22 04:48:44;;;;;;;7.43;4.10;;;1.40;99.90;;;;;;6212858;23;20409;-57
2023/11/22 04:51:12;;;;;;;9.63;4.67;;;1.40;99.90;;;;;;6212319;23;20393;-55
2023/11/22 04:53:38;;;;;;;9.00;4.27;;;1.40;99.90;;;;;;6212153;23;20436;-59
2023/11/22 04:56:06;;;;;;;8.30;4.10;;;1.40;99.90;;;;;;6212414;23;20440;-59
2023/11/22 04:58:35;;;;;;;5.70;3.97;;;1.40;99.90;;;;;;6213058;23;20405;-58
2023/11/22 05:01:02;;;;;;;9.93;3.90;;;1.30;99.90;;;;;;6211736;23;20435;-59
2023/11/22 05:03:29;;;;;;;11.97;5.50;;;1.30;99.90;;;;;;6211920;23;20706;-57
2023/11/22 05:05:56;;;;;;;7.90;4.73;;;1.30;99.90;;;;;;6211730;23;20431;-57
2023/11/22 05:08:23;;;;;;;6.50;3.90;;;1.30;99.90;;;;;;6212555;23;20385;-60
2023/11/22 05:10:50;;;;;;;8.57;4.40;;;1.30;99.90;;;;;;6212419;23;20397;-60
2023/11/22 05:13:17;;;;;;;8.67;5.17;;;1.30;99.90;;;;;;6212422;23;20401;-55
2023/11/22 05:15:44;;;;;;;7.17;4.33;;;1.30;99.90;;;;;;6213392;23;20433;-57
2023/11/22 05:18:11;;;;;;;8.93;4.13;;;1.30;99.90;;;;;;6213379;23;20435;-54
2023/11/22 05:20:38;;;;;;;8.40;4.40;;;1.30;99.90;;;;;;6213431;23;20392;-55
2023/11/22 05:23:05;;;;;;;6.77;4.00;;;1.30;99.90;;;;;;6213085;23;20389;-56
2023/11/22 05:25:32;;;;;;;10.33;4.80;;;1.30;99.90;;;;;;6213012;23;20423;-53
2023/11/22 05:27:59;;;;;;;5.63;3.77;;;1.20;99.90;;;;;;6212472;23;20389;-53
2023/11/22 05:30:26;;;;;;;11.00;4.27;;;1.20;99.90;;;;;;6212058;23;20488;-56
2023/11/22 05:32:54;;;;;;;6.53;4.27;;;1.20;99.90;;;;;;6211611;23;20444;-57
2023/11/22 05:35:21;;;;;;;5.13;3.53;;;1.20;99.90;;;;;;6212356;23;20416;-56
2023/11/22 05:37:48;;;;;;;8.57;4.30;;;1.20;99.90;;;;;;6211951;23;20441;-58
2023/11/22 05:40:16;;;;;;;8.20;3.33;;;1.20;99.90;;;;;;6211853;23;20400;-56
2023/11/22 05:42:43;;;;;;;4.63;3.50;;;1.20;99.90;;;;;;6212042;23;20485;-56
2023/11/22 05:45:10;;;;;;;5.57;4.13;;;1.20;99.90;;;;;;6212110;23;20416;-58
2023/11/22 05:47:37;;;;;;;7.30;4.63;;;1.20;99.90;;;;;;6212090;23;20402;-54
2023/11/22 05:50:06;;;;;;;5.93;4.20;;;1.10;99.90;;;;;;6211576;23;20435;-59
2023/11/22 05:52:33;;;;;;;6.67;4.20;;;1.20;99.90;;;;;;6211470;23;20411;-58
2023/11/22 05:55:03;;;;;;;9.17;4.70;;;1.10;99.90;;;;;;6211616;23;20461;-58
2023/11/22 05:57:30;;;;;;;8.40;4.47;;;1.10;99.90;;;;;;6211750;23;20432;-58
2023/11/22 05:59:59;;;;;;;6.93;4.43;;;1.10;99.90;;;;;;6211842;23;20400;-59
2023/11/22 06:02:27;;;;;;;9.07;4.67;;;1.10;99.90;;;;;;6211273;23;20385;-59
2023/11/22 06:04:54;;;;;;;6.17;3.80;;;1.10;99.90;;;;;;6211847;23;20409;-61
2023/11/22 06:07:22;;;;;;;4.17;2.83;;;1.00;99.90;;;;;;6211870;23;20430;-57
2023/11/22 06:09:49;;;;;;;5.47;3.00;;;1.10;99.90;;;;;;6212056;23;20424;-59
2023/11/22 06:12:16;;;;;;;7.90;4.60;;;1.00;99.90;;;;;;6211969;23;20415;-57
2023/11/22 06:14:43;;;;;;;9.73;4.37;;;1.00;99.90;;;;;;6211765;23;20389;-58
2023/11/22 06:17:10;;;;;;;6.57;4.50;;;1.00;99.90;;;;;;6211462;23;20440;-58
2023/11/22 06:19:37;;;;;;;6.80;3.40;;;1.00;99.90;;;;;;6211899;23;20409;-60
2023/11/22 06:22:04;;;;;;;4.77;3.17;;;1.00;99.90;;;;;;6211143;23;20512;-58
2023/11/22 06:24:33;;;;;;;8.63;5.13;;;1.00;99.90;;;;;;6211205;23;20408;-60
2023/11/22 06:27:00;;;;;;;11.00;5.97;;;0.90;99.90;;;;;;6211515;23;20405;-54
2023/11/22 06:29:27;;;;;;;9.33;4.47;;;1.00;99.90;;;;;;6211747;23;20385;-56
2023/11/22 06:31:54;;;;;;;5.73;3.60;;;1.00;99.90;;;;;;6211162;23;20497;-50
2023/11/22 06:34:20;;;;;;;5.60;3.20;;;1.00;99.90;;;;;;6211970;23;20428;-55
2023/11/22 06:36:47;;;;;;;12.80;4.37;;;1.00;99.90;;;;;;6211514;23;20428;-59
2023/11/22 06:39:14;;;;;;;7.30;4.63;;;1.00;99.90;;;;;;6211757;23;20411;-58
2023/11/22 06:41:43;;;;;;;6.37;3.70;;;1.00;99.90;;;;;;6211594;23;20409;-58
2023/11/22 06:44:10;;;;;;;7.67;4.60;;;0.90;99.90;;;;;;6211333;23;20433;-57
2023/11/22 06:46:37;;;;;;;5.40;3.87;;;1.00;99.90;;;;;;6210863;23;20429;-58
2023/11/22 06:49:04;;;;;;;7.57;4.40;;;1.00;99.90;;;;;;6211461;23;20389;-53
2023/11/22 06:51:31;;;;;;;7.70;3.90;;;1.00;99.90;;;;;;6211320;23;20415;-59
2023/11/22 06:53:58;;;;;;;15.03;5.20;;;1.00;99.90;;;;;;6211770;23;20404;-53
2023/11/22 06:56:25;;;;;;;8.87;4.03;;;1.00;99.90;;;;;;6211435;23;20441;-57
2023/11/22 06:58:53;;;;;;;9.50;4.70;;;1.00;99.90;;;;;;6211946;23;20405;-57
2023/11/22 07:01:25;;;;;;;5.17;4.00;;;1.00;99.90;;;;;;6211904;23;20927;-58
2023/11/22 07:03:53;;;;;;;5.57;3.93;;;1.00;99.90;;;;;;6211159;23;20454;-57
2023/11/22 07:06:22;;;;;;;7.37;3.83;;;1.00;99.90;;;;;;6211537;23;20705;-61
2023/11/22 07:08:49;;;;;;;5.03;3.03;;;0.90;99.90;;;;;;6211382;23;20433;-59
2023/11/22 07:11:24;;;;;;;5.80;3.37;;;1.00;99.90;;;;;;6212170;23;20420;-58
2023/11/22 07:13:51;;;;;;;7.60;4.37;;;0.90;99.90;;;;;;6211982;23;20456;-56
2023/11/22 07:16:20;;;;;;;4.80;4.00;;;0.90;99.90;;;;;;6211167;23;20431;-58
2023/11/22 07:18:47;;;;;;;7.03;3.80;;;0.90;99.90;;;;;;6211614;23;20392;-57
2023/11/22 07:21:14;;;;;;;12.30;4.60;;;0.90;99.90;;;;;;6211513;23;20393;-58
2023/11/22 07:23:41;;;;;;;11.10;4.47;;;0.90;99.90;;;;;;6212397;23;20400;-56
2023/11/22 07:26:07;;;;;;;6.83;4.20;;;0.90;99.90;;;;;;6212191;23;20381;-60
2023/11/22 07:28:35;;;;;;;7.93;4.27;;;0.90;99.90;;;;;;6212133;23;20408;-59
2023/11/22 07:31:02;;;;;;;8.50;4.90;;;1.00;99.90;;;;;;6212593;23;20428;-58
2023/11/22 07:33:31;;;;;;;8.67;5.73;;;1.00;99.90;;;;;;6212497;23;20405;-58
2023/11/22 07:35:58;;;;;;;7.60;5.03;;;1.00;99.90;;;;;;6212175;23;20452;-60
2023/11/22 07:38:25;;;;;;;6.73;4.63;;;1.00;99.90;;;;;;6214386;23;20416;-55
2023/11/22 07:40:52;;;;;;;7.10;3.73;;;1.10;99.90;;;;;;6213935;23;20397;-62
2023/11/22 07:43:19;;;;;;;10.07;6.57;;;1.10;99.90;;;;;;6214155;23;20393;-56
2023/11/22 07:45:47;;;;;;;14.00;5.03;;;1.10;99.90;;;;;;6214485;23;20389;-59
2023/11/22 07:48:14;;;;;;;6.27;3.10;;;1.10;99.90;;;;;;6214134;23;20432;-57
2023/11/22 07:50:43;;;;;;;7.50;4.57;;;1.20;99.90;;;;;;6214532;23;20400;-59
2023/11/22 07:53:11;;;;;;;7.57;4.00;;;1.20;99.90;;;;;;6214267;23;20488;-58
2023/11/22 07:55:38;;;;;;;10.03;5.10;;;1.20;99.90;;;;;;6213970;23;20397;-56
2023/11/22 07:58:06;;;;;;;6.57;4.73;;;1.20;99.90;;;;;;6214033;23;20448;-54
2023/11/22 08:00:34;;;;;;;6.97;4.00;;;1.30;99.90;;;;;;6214164;23;20431;-59
2023/11/22 08:03:02;;;;;;;10.70;5.07;;;1.30;99.90;;;;;;6213975;23;20420;-58
2023/11/22 08:05:34;;;;;;;14.97;6.20;;;1.40;99.90;;;;;;6213719;23;20495;-60
2023/11/22 08:08:06;;;;;;;10.40;4.63;;;1.50;99.90;;;;;;6213661;23;20377;-59
2023/11/22 08:10:34;;;;;;;9.03;4.90;;;1.50;99.90;;;;;;6213602;23;20433;-59
2023/11/22 08:13:02;;;;;;;6.70;4.40;;;1.60;99.90;;;;;;6213825;23;20475;-59
2023/11/22 08:15:29;;;;;;;8.23;4.60;;;1.60;99.90;;;;;;6214141;23;20433;-60
2023/11/22 08:17:58;;;;;;;5.00;3.67;;;1.60;99.90;;;;;;6213733;23;20421;-59
2023/11/22 08:20:25;;;;;;;8.10;4.80;;;1.60;99.90;;;;;;6213711;23;20401;-60
2023/11/22 08:22:52;;;;;;;7.00;3.83;;;1.60;99.90;;;;;;6213615;23;20388;-60
2023/11/22 08:25:20;;;;;;;18.70;4.50;;;1.60;99.90;;;;;;6212549;23;20404;-58
2023/11/22 08:27:47;;;;;;;8.37;4.03;;;1.60;99.90;;;;;;6212956;23;20416;-55
2023/11/22 08:30:15;;;;;;;7.60;4.80;;;1.70;99.90;;;;;;6213774;23;20412;-57
2023/11/22 08:32:43;;;;;;;7.10;4.20;;;1.60;99.90;;;;;;6212983;23;20405;-60
2023/11/22 08:35:10;;;;;;;8.13;5.20;;;1.50;99.90;;;;;;6213188;23;20456;-55
2023/11/22 08:37:41;;;;;;;8.33;3.93;;;1.50;99.90;;;;;;6213415;23;20432;-58
2023/11/22 08:40:11;;;;;;;7.50;5.53;;;1.60;99.90;;;;;;6212552;23;20437;-58
2023/11/22 08:42:40;;;;;;;7.63;4.67;;;1.70;99.90;;;;;;6212570;23;20373;-58
2023/11/22 08:45:09;;;;;;;9.40;5.17;;;1.80;99.90;;;;;;6213425;23;20401;-60
2023/11/22 08:47:36;;;;;;;7.13;5.17;;;1.80;99.90;;;;;;6212557;23;20464;-60
2023/11/22 08:50:05;;;;;;;5.63;3.60;;;1.80;99.90;;;;;;6212920;23;20409;-59
2023/11/22 08:52:32;;;;;;;7.70;4.60;;;1.90;99.90;;;;;;6212850;23;20448;-56
2023/11/22 08:55:00;;;;;;;12.30;4.30;;;1.90;99.90;;;;;;6212673;23;20415;-60
2023/11/22 08:57:27;;;;;;;11.73;4.87;;;1.90;99.90;;;;;;6212654;23;20417;-56
2023/11/22 08:59:56;;;;;;;7.17;3.93;;;2.00;99.90;;;;;;6212827;23;20385;-60
2023/11/22 09:02:23;;;;;;;13.63;4.90;;;2.20;99.90;;;;;;6213370;23;20412;-59
2023/11/22 09:04:50;;;;;;;7.37;5.00;;;2.20;99.90;;;;;;6212980;23;20452;-56
2023/11/22 09:07:17;;;;;;;12.67;4.93;;;2.20;99.90;;;;;;6212194;23;20396;-60
2023/11/22 09:09:44;;;;;;;10.97;3.53;;;2.20;99.90;;;;;;6212457;23;20405;-59
2023/11/22 09:12:12;;;;;;;12.50;6.00;;;2.20;99.90;;;;;;6212496;23;20419;-57
2023/11/22 09:14:41;;;;;;;6.30;3.93;;;2.40;99.90;;;;;;6212321;23;20405;-54
2023/11/22 09:17:10;;;;;;;10.53;4.30;;;2.50;99.90;;;;;;6212626;23;20440;-58
2023/11/22 09:19:37;;;;;;;7.63;4.30;;;2.50;99.90;;;;;;6211692;23;20405;-58
2023/11/22 09:22:06;;;;;;;16.57;15.10;;;2.70;99.90;;;;;;6212213;23;20400;-61
2023/11/22 09:24:33;;;;;;;3.73;3.10;;;3.30;99.90;;;;;;6209025;23;20412;-61
2023/11/22 09:27:04;;;;;;;5.60;4.20;;;4.00;99.90;;;;;;6209241;23;20448;-60
2023/11/22 09:29:32;;;;;;;10.20;6.33;;;4.50;99.90;;;;;;6209735;23;20447;-49
2023/11/22 09:32:00;;;;;;;8.10;4.73;;;4.70;99.90;;;;;;6211546;23;20381;-59
2023/11/22 09:34:30;;;;;;;7.53;4.20;;;4.90;99.90;;;;;;6210550;23;20397;-58
2023/11/22 09:36:58;;;;;;;6.70;3.43;;;5.30;99.90;;;;;;6211846;23;20416;-57
2023/11/22 09:39:29;;;;;;;9.03;3.83;;;5.60;99.90;;;;;;6209860;23;20409;-59
2023/11/22 09:41:56;;;;;;;9.17;5.23;;;6.00;99.90;;;;;;6206927;23;20459;-61
2023/11/22 09:44:23;;;;;;;7.90;4.33;;;6.30;99.90;;;;;;6206416;23;20393;-60
2023/11/22 09:46:50;;;;;;;5.03;3.37;;;6.30;98.60;;;;;;6206841;23;20709;-59
2023/11/22 09:49:25;;;;;;;5.10;3.87;;;6.10;98.20;;;;;;6207637;23;20406;-59
2023/11/22 09:51:57;;;;;;;6.03;5.00;;;6.20;98.40;;;;;;6206972;23;20427;-61
2023/11/22 09:54:29;;;;;;;7.87;5.37;;;6.30;96.90;;;;;;6205681;23;20389;-59
2023/11/22 09:57:00;;;;;;;4.43;3.40;;;6.50;98.10;;;;;;6203617;23;20385;-60
2023/11/22 09:59:29;;;;;;;6.67;4.70;;;6.80;97.00;;;;;;6204040;23;20392;-59
2023/11/22 10:01:59;;;;;;;9.83;4.57;;;7.00;96.20;;;;;;6203314;23;20408;-59
2023/11/22 10:04:28;;;;;;;7.87;4.00;;;7.40;94.40;;;;;;6202252;23;20451;-60
2023/11/22 10:06:59;;;;;;;8.60;4.57;;;7.90;92.90;;;;;;6199976;23;20712;-59
2023/11/22 10:09:27;;;;;;;9.37;4.27;;;8.60;90.00;;;;;;6198793;23;20483;-59
2023/11/22 10:11:57;;;;;;;6.67;3.80;;;9.20;84.90;;;;;;6198883;23;20412;-57
2023/11/22 10:14:25;;;;;;;7.67;4.40;;;9.80;80.00;;;;;;6196236;23;20420;-60
2023/11/22 10:17:02;;;;;;;6.70;4.93;;;10.20;73.60;;;;;;6197482;23;20392;-61
2023/11/22 10:19:29;;;;;;;12.43;4.10;;;10.30;70.10;;;;;;6197934;23;20419;-60
2023/11/22 10:22:08;;;;;;;8.73;5.07;;;10.30;68.20;;;;;;6197734;23;20409;-60
2023/11/22 10:24:35;;;;;;;6.40;4.37;;;10.10;66.80;;;;;;6198868;23;20400;-58
2023/11/22 10:27:03;;;;;;;5.63;4.67;;;9.70;68.50;;;;;;6198532;23;20460;-59
2023/11/22 10:29:30;;;;;;;7.63;4.07;;;9.40;69.70;;;;;;6200755;23;20439;-57
2023/11/22 10:31:58;;;;;;;6.40;4.20;;;8.90;70.30;;;;;;6201290;23;20452;-58
2023/11/22 10:34:26;;;;;;;9.90;4.33;;;8.40;72.30;;;;;;6203302;23;20405;-60
2023/11/22 10:36:54;;;;;;;5.90;4.23;;;7.80;73.60;;;;;;6204237;23;20440;-59
2023/11/22 10:39:22;;;;;;;6.00;3.80;;;7.30;76.60;;;;;;6203659;23;20631;-60
2023/11/22 10:41:51;;;;;;;6.57;3.57;;;7.00;77.90;;;;;;6206472;23;20411;-60
2023/11/22 10:44:22;;;;;;;7.17;4.43;;;6.30;82.00;;;;;;6207453;23;20409;-61
2023/11/22 10:46:52;;;;;;;6.53;3.83;;;5.90;86.50;;;;;;6207950;23;20488;-57
2023/11/22 10:49:19;;;;;;;7.00;4.13;;;5.50;90.30;;;;;;6207497;23;20421;-54
2023/11/22 10:51:52;;;;;;;8.03;5.33;;;5.20;91.70;;;;;;6205095;23;20393;-61
2023/11/22 10:54:22;;;;;;;7.97;4.40;;;5.00;93.90;;;;;;6206830;23;20429;-59
2023/11/22 10:56:56;;;;;;;7.17;4.00;;;4.80;94.10;;;;;;6206644;23;20432;-60
2023/11/22 10:59:27;;;;;;;8.07;4.10;;;4.70;95.60;;;;;;6206555;23;20523;-59
2023/11/22 11:01:59;;;;;;;8.50;3.73;;;4.60;96.00;;;;;;6207806;23;20528;-60
2023/11/22 11:04:35;;;;;;;7.07;4.63;;;4.50;97.00;;;;;;6208176;23;20393;-59
2023/11/22 11:07:03;;;;;;;5.63;4.57;;;4.40;98.40;;;;;;6208217;23;20446;-61
2023/11/22 11:09:32;;;;;;;9.50;4.17;;;4.30;99.80;;;;;;6208127;23;20435;-60
2023/11/22 11:11:59;;;;;;;6.70;3.70;;;4.30;99.90;;;;;;6209752;23;20409;-55
2023/11/22 11:14:27;;;;;;;8.20;5.33;;;4.30;99.90;;;;;;6210175;23;20416;-50
2023/11/22 11:16:58;;;;;;;8.93;4.90;;;4.10;99.90;;;;;;6210970;23;20453;-57
2023/11/22 11:19:25;;;;;;;5.47;3.87;;;4.10;99.90;;;;;;6211373;23;20437;-56
2023/11/22 11:21:52;;;;;;;6.77;3.80;;;4.10;99.90;;;;;;6211145;23;20424;-60
2023/11/22 11:24:19;;;;;;;7.60;3.87;;;4.00;99.90;;;;;;6210852;23;20463;-58
2023/11/22 11:26:52;;;;;;;9.27;4.27;;;4.00;99.90;;;;;;6210109;23;20411;-57
2023/11/22 11:29:32;;;;;;;6.50;3.73;;;4.00;99.90;;;;;;6211349;23;20393;-58
2023/11/22 11:31:59;;;;;;;9.57;4.40;;;4.00;99.90;;;;;;6209271;23;20405;-59
2023/11/22 11:34:26;;;;;;;6.00;4.27;;;4.10;99.90;;;;;;6209422;23;20404;-59
2023/11/22 11:36:55;;;;;;;9.37;5.33;;;4.10;99.90;;;;;;6210396;23;20415;-58
2023/11/22 11:39:29;;;;;;;7.30;4.80;;;4.10;99.90;;;;;;6208689;23;20418;-60
2023/11/22 11:42:10;;;;;;;5.73;3.90;;;4.10;99.90;;;;;;6210557;23;20496;-61
2023/11/22 11:44:38;;;;;;;7.87;4.37;;;4.10;99.90;;;;;;6210592;23;20388;-59
2023/11/22 11:47:11;;;;;;;9.47;4.03;;;4.20;99.90;;;;;;6209893;23;20377;-58
2023/11/22 11:49:38;;;;;;;6.50;4.50;;;4.20;99.90;;;;;;6209523;23;20385;-60
2023/11/22 11:52:07;;;;;;;7.37;4.00;;;4.30;99.90;;;;;;6209527;23;20404;-60
2023/11/22 11:54:50;;;;;;;5.83;3.33;;;4.30;99.90;;;;;;6210549;23;20455;-61
2023/11/22 11:57:18;;;;;;;7.03;4.67;;;4.30;99.90;;;;;;6240066;23;20384;-56
2023/11/22 11:59:46;;;;;;;8.17;5.07;;;4.30;99.90;;;;;;6240021;23;20451;-61
2023/11/22 12:02:13;;;;;;;7.30;3.83;;;4.30;99.90;;;;;;6238652;23;20407;-62
2023/11/22 12:04:42;;;;;;;7.23;3.93;;;4.20;99.90;;;;;;6238779;23;20400;-62
2023/11/22 12:07:12;;;;;;;10.63;4.10;;;4.20;99.90;;;;;;6238573;23;20395;-60
2023/11/22 12:09:40;;;;;;;8.97;5.07;;;4.20;99.90;;;;;;6237927;23;20403;-60
2023/11/22 12:12:08;;;;;;;8.20;4.93;;;4.20;99.90;;;;;;6238817;23;20447;-55
2023/11/22 12:14:36;;;;;;;6.00;3.70;;;4.20;99.90;;;;;;6238720;23;20408;-61
2023/11/22 12:17:07;;;;;;;6.67;3.80;;;4.30;99.90;;;;;;6239104;23;20717;-60
2023/11/22 12:19:34;;;;;;;10.27;5.50;;;4.30;99.90;;;;;;6239419;23;20420;-60
2023/11/22 12:22:01;;;;;;;7.63;4.33;;;4.30;99.90;;;;;;6237790;23;20432;-60
2023/11/22 12:24:28;;;;;;;8.87;4.73;;;5.50;99.90;;;;;;6235965;23;20907;-60
2023/11/22 12:26:57;;;;;;;5.63;3.60;;;5.60;99.90;;;;;;6237028;23;20428;-57
2023/11/22 12:29:25;;;;;;;11.60;4.03;;;5.40;99.90;;;;;;6238300;23;20424;-63
2023/11/22 12:31:55;;;;;;;6.13;4.87;;;5.10;99.90;;;;;;6237836;23;20408;-62
2023/11/22 12:34:24;;;;;;;8.93;4.20;;;4.90;99.90;;;;;;6237077;23;20678;-61
2023/11/22 12:36:51;;;;;;;10.77;4.30;;;4.80;99.90;;;;;;6238186;23;20404;-61
2023/11/22 12:39:20;;;;;;;9.37;4.67;;;4.60;99.90;;;;;;6238483;23;20774;-61
2023/11/22 12:41:50;;;;;;;6.23;3.80;;;4.60;99.90;;;;;;6236644;23;20404;-62
2023/11/22 12:44:18;;;;;;;10.40;5.13;;;4.60;99.90;;;;;;6236931;23;20855;-62
2023/11/22 12:46:55;;;;;;;5.03;3.10;;;4.50;99.90;;;;;;6236451;23;20392;-60
2023/11/22 12:49:27;;;;;;;9.10;5.80;;;4.50;99.90;;;;;;6235330;23;20395;-57
2023/11/22 12:51:56;;;;;;;6.63;4.00;;;4.50;99.90;;;;;;6234947;23;20801;-58
2023/11/22 12:54:23;;;;;;;6.67;4.37;;;4.40;99.90;;;;;;6235711;23;20404;-57
2023/11/22 12:56:54;;;;;;;5.10;4.20;;;4.40;99.90;;;;;;6237185;23;20819;-60
2023/11/22 12:59:20;;;;;;;8.40;4.33;;;4.40;99.90;;;;;;6237320;23;20451;-60